createdAt,value
2017-07-21T00:01:36.314Z,21.70
2017-07-21T00:04:05.517Z,21.60
2017-07-21T00:06:34.777Z,21.60
2017-07-21T00:09:04.214Z,21.70
2017-07-21T00:11:33.446Z,21.70
2017-07-21T00:14:02.672Z,21.70
2017-07-21T00:16:31.911Z,21.60
2017-07-21T00:19:01.143Z,21.40
2017-07-21T00:21:30.410Z,21.30
2017-07-21T00:23:59.691Z,21.20
2017-07-21T00:26:28.975Z,21.30
2017-07-21T00:28:58.198Z,21.30
2017-07-21T00:31:27.432Z,21.20
2017-07-21T00:33:56.630Z,21.30
2017-07-21T00:36:25.895Z,21.30
2017-07-21T00:38:55.117Z,21.20
2017-07-21T00:41:25.082Z,21.30
2017-07-21T00:43:54.361Z,21.20
2017-07-21T00:46:23.567Z,21.20
2017-07-21T00:48:52.788Z,21.20
2017-07-21T00:51:22.039Z,21.10
2017-07-21T00:53:51.297Z,21.10
2017-07-21T00:56:21.131Z,21.10
2017-07-21T00:58:50.364Z,21.20
2017-07-21T01:01:20.238Z,21.10
2017-07-21T01:03:49.445Z,21.10
2017-07-21T01:06:18.651Z,21.00
2017-07-21T01:08:48.454Z,21.00
2017-07-21T01:11:18.114Z,20.90
2017-07-21T01:13:47.642Z,20.80
2017-07-21T01:16:16.910Z,20.80
2017-07-21T01:18:46.899Z,20.80
2017-07-21T01:21:16.158Z,20.80
2017-07-21T01:23:45.410Z,20.70
2017-07-21T01:26:14.991Z,20.70
2017-07-21T01:28:44.246Z,20.70
2017-07-21T01:31:13.536Z,20.80
2017-07-21T01:33:42.805Z,20.80
2017-07-21T01:36:12.045Z,20.80
2017-07-21T01:38:41.314Z,20.80
2017-07-21T01:41:10.903Z,20.80
2017-07-21T01:43:40.155Z,20.80
2017-07-21T01:46:09.437Z,20.80
2017-07-21T01:48:38.722Z,20.80
2017-07-21T01:51:07.983Z,20.80
2017-07-21T01:53:37.227Z,20.80
2017-07-21T01:56:07.729Z,20.80
2017-07-21T01:58:37.081Z,20.80
2017-07-21T02:01:06.366Z,20.80
2017-07-21T02:03:36.194Z,20.80
2017-07-21T02:06:05.414Z,20.80
2017-07-21T02:08:34.680Z,20.80
2017-07-21T02:11:04.859Z,20.80
2017-07-21T02:13:34.130Z,20.70
2017-07-21T02:16:03.371Z,20.70
2017-07-21T02:18:32.598Z,20.70
2017-07-21T02:21:02.624Z,20.60
2017-07-21T02:23:31.856Z,20.70
2017-07-21T02:26:02.179Z,20.70
2017-07-21T02:28:31.584Z,20.70
2017-07-21T02:31:01.392Z,20.60
2017-07-21T02:33:30.675Z,20.40
2017-07-21T02:35:59.917Z,20.40
2017-07-21T02:38:29.568Z,20.30
2017-07-21T02:40:59.232Z,20.30
2017-07-21T02:43:28.470Z,20.20
2017-07-21T02:45:58.202Z,20.10
2017-07-21T02:48:27.450Z,20.10
2017-07-21T02:50:57.792Z,20.20
2017-07-21T02:53:27.800Z,20.20
2017-07-21T02:55:57.426Z,20.20
2017-07-21T02:58:26.679Z,20.20
2017-07-21T03:00:55.914Z,20.20
2017-07-21T03:03:25.971Z,20.20
2017-07-21T03:05:55.231Z,20.20
2017-07-21T03:08:24.448Z,20.20
2017-07-21T03:10:54.342Z,20.30
2017-07-21T03:13:24.371Z,20.30
2017-07-21T03:15:53.614Z,20.30
2017-07-21T03:18:22.858Z,20.40
2017-07-21T03:20:52.875Z,20.40
2017-07-21T03:23:24.983Z,20.40
2017-07-21T03:25:54.229Z,20.50
2017-07-21T03:28:24.819Z,20.50
2017-07-21T03:30:54.262Z,20.50
2017-07-21T03:33:23.487Z,20.60
2017-07-21T03:35:52.769Z,20.50
2017-07-21T03:38:22.945Z,20.60
2017-07-21T03:40:52.184Z,20.60
2017-07-21T03:43:22.142Z,20.60
2017-07-21T03:45:51.378Z,20.60
2017-07-21T03:48:20.685Z,20.60
2017-07-21T03:50:49.886Z,20.60
2017-07-21T03:53:19.110Z,20.60
2017-07-21T03:55:48.325Z,20.50
2017-07-21T04:01:10.771Z,20.50
2017-07-21T04:03:40.014Z,20.40
2017-07-21T04:06:09.260Z,20.40
2017-07-21T04:08:39.978Z,20.40
2017-07-21T04:11:09.202Z,20.50
2017-07-21T04:13:38.450Z,20.50
2017-07-21T04:16:07.735Z,20.50
2017-07-21T04:18:36.982Z,20.50
2017-07-21T04:21:06.210Z,20.50
2017-07-21T04:23:36.050Z,20.60
2017-07-21T04:26:05.344Z,20.50
2017-07-21T04:28:34.586Z,20.50
2017-07-21T04:31:03.830Z,20.50
2017-07-21T04:33:33.135Z,20.40
2017-07-21T04:36:02.368Z,20.40
2017-07-21T04:38:31.961Z,20.60
2017-07-21T04:41:01.208Z,20.60
2017-07-21T04:43:30.437Z,20.70
2017-07-21T04:45:59.707Z,20.70
2017-07-21T04:48:29.002Z,20.70
2017-07-21T04:50:58.231Z,20.70
2017-07-21T04:53:27.438Z,20.80
2017-07-21T04:55:56.646Z,20.80
2017-07-21T04:58:25.903Z,20.80
2017-07-21T05:00:56.124Z,20.80
2017-07-21T05:03:26.194Z,20.90
2017-07-21T05:05:55.462Z,20.90
2017-07-21T05:08:24.714Z,20.90
2017-07-21T05:10:54.723Z,20.80
2017-07-21T05:13:23.962Z,20.80
2017-07-21T05:15:53.210Z,20.80
2017-07-21T05:18:22.491Z,20.90
2017-07-21T05:20:52.206Z,20.90
2017-07-21T05:23:21.442Z,21.00
2017-07-21T05:25:50.713Z,21.10
2017-07-21T05:28:20.310Z,21.10
2017-07-21T05:30:49.554Z,21.20
2017-07-21T05:33:18.773Z,21.20
2017-07-21T05:35:49.054Z,21.20
2017-07-21T05:38:18.313Z,21.20
2017-07-21T05:40:47.574Z,21.20
2017-07-21T05:43:16.810Z,21.10
2017-07-21T05:45:46.054Z,21.20
2017-07-21T05:48:15.302Z,21.30
2017-07-21T05:50:45.206Z,21.40
2017-07-21T05:53:14.577Z,21.50
2017-07-21T05:55:43.808Z,21.60
2017-07-21T05:58:13.038Z,21.60
2017-07-21T06:00:42.281Z,21.70
2017-07-21T06:03:13.279Z,21.70
2017-07-21T06:05:42.518Z,21.70
2017-07-21T06:08:11.731Z,21.80
2017-07-21T06:10:40.970Z,21.80
2017-07-21T06:13:10.267Z,21.90
2017-07-21T06:15:39.519Z,22.00
2017-07-21T06:18:09.533Z,22.20
2017-07-21T06:20:39.930Z,22.30
2017-07-21T06:23:09.307Z,22.30
2017-07-21T06:25:38.562Z,22.40
2017-07-21T06:28:07.830Z,22.20
2017-07-21T06:30:37.111Z,22.20
2017-07-21T06:33:06.370Z,22.20
2017-07-21T06:35:37.087Z,22.00
2017-07-21T06:38:08.628Z,22.00
2017-07-21T06:40:37.866Z,22.00
2017-07-21T06:43:07.157Z,22.20
2017-07-21T06:45:36.386Z,22.10
2017-07-21T06:48:05.613Z,22.10
2017-07-21T06:50:34.876Z,22.20
2017-07-21T06:53:04.137Z,22.30
2017-07-21T06:55:33.387Z,22.60
2017-07-21T06:58:02.665Z,22.80
2017-07-21T07:00:31.938Z,22.90
2017-07-21T07:03:01.162Z,22.60
2017-07-21T07:05:30.399Z,22.50
2017-07-21T07:07:59.639Z,22.50
2017-07-21T07:10:28.849Z,22.60
2017-07-21T07:12:58.098Z,22.80
2017-07-21T07:15:27.771Z,22.80
2017-07-21T07:17:57.004Z,22.70
2017-07-21T07:20:26.255Z,22.90
2017-07-21T07:22:55.522Z,23.00
2017-07-21T07:25:24.767Z,23.00
2017-07-21T07:27:54.705Z,23.00
2017-07-21T07:30:23.982Z,23.10
2017-07-21T07:32:53.218Z,22.90
2017-07-21T07:35:22.467Z,22.90
2017-07-21T07:37:51.679Z,23.10
2017-07-21T07:40:20.934Z,23.20
2017-07-21T07:42:51.578Z,23.30
2017-07-21T07:45:21.618Z,23.50
2017-07-21T07:47:51.530Z,23.50
2017-07-21T07:50:20.763Z,23.70
2017-07-21T07:52:49.992Z,23.40
2017-07-21T07:55:19.274Z,23.50
2017-07-21T07:57:48.538Z,23.30
2017-07-21T08:00:17.769Z,23.30
2017-07-21T08:02:47.018Z,23.50
2017-07-21T08:05:16.247Z,23.40
2017-07-21T08:07:45.490Z,23.30
2017-07-21T08:10:16.170Z,23.70
2017-07-21T08:12:45.391Z,23.70
2017-07-21T08:15:14.698Z,23.70
2017-07-21T08:17:43.972Z,23.70
2017-07-21T08:20:13.218Z,23.80
2017-07-21T08:22:42.468Z,24.00
2017-07-21T08:25:11.711Z,24.10
2017-07-21T08:27:40.988Z,24.10
2017-07-21T08:30:10.243Z,24.10
2017-07-21T08:32:39.501Z,24.20
2017-07-21T08:35:08.782Z,24.20
2017-07-21T08:37:38.104Z,24.40
2017-07-21T08:40:07.354Z,24.50
2017-07-21T08:42:36.635Z,24.70
2017-07-21T08:45:05.854Z,24.80
2017-07-21T08:47:35.094Z,24.80
2017-07-21T08:50:05.186Z,24.50
2017-07-21T08:52:34.439Z,24.40
2017-07-21T08:55:03.727Z,24.60
2017-07-21T09:37:07.518Z,23.50
2017-07-21T09:39:36.800Z,23.90
2017-07-21T09:42:06.061Z,24.10
2017-07-21T09:44:35.366Z,24.40
2017-07-21T09:47:04.643Z,24.80
2017-07-21T09:49:34.874Z,25.10
2017-07-21T09:52:04.122Z,25.30
2017-07-21T09:54:33.417Z,25.50
2017-07-21T09:57:02.678Z,25.70
2017-07-21T09:59:31.971Z,25.80
2017-07-21T10:02:01.233Z,26.00
2017-07-21T10:04:30.758Z,26.20
2017-07-21T10:07:00.285Z,26.20
2017-07-21T10:09:29.542Z,26.20
2017-07-21T10:11:59.445Z,26.20
2017-07-21T10:14:28.678Z,26.30
2017-07-21T10:16:57.899Z,26.40
2017-07-21T10:19:27.179Z,26.40
2017-07-21T10:21:56.436Z,26.60
2017-07-21T10:24:27.393Z,26.50
2017-07-21T10:26:56.766Z,26.50
2017-07-21T10:29:26.974Z,26.70
2017-07-21T10:31:56.275Z,26.90
2017-07-21T10:34:25.502Z,27.00
2017-07-21T10:36:56.654Z,27.00
2017-07-21T10:39:26.434Z,27.10
2017-07-21T10:41:55.660Z,27.20
2017-07-21T10:44:24.902Z,27.40
2017-07-21T10:46:54.150Z,27.40
2017-07-21T10:49:24.813Z,27.70
2017-07-21T10:51:54.407Z,27.60
2017-07-21T10:54:23.807Z,27.80
2017-07-21T10:56:53.450Z,27.90
2017-07-21T10:59:22.692Z,28.00
2017-07-21T11:01:52.559Z,28.10
2017-07-21T11:04:21.874Z,28.10
2017-07-21T11:06:51.128Z,28.20
2017-07-21T11:09:20.370Z,28.30
2017-07-21T11:11:49.588Z,28.40
2017-07-21T11:14:19.498Z,28.40
2017-07-21T11:16:48.743Z,28.50
2017-07-21T11:19:17.986Z,28.70
2017-07-21T11:21:47.238Z,28.50
2017-07-21T11:24:16.487Z,28.50
2017-07-21T11:26:46.083Z,28.80
2017-07-21T11:29:15.350Z,28.90
2017-07-21T11:31:44.587Z,29.00
2017-07-21T11:34:13.901Z,29.30
2017-07-21T11:36:43.145Z,29.40
2017-07-21T11:39:12.411Z,29.50
2017-07-21T11:41:41.703Z,29.70
2017-07-21T11:44:10.970Z,29.90
2017-07-21T11:46:40.217Z,30.00
2017-07-21T11:49:09.482Z,30.00
2017-07-21T11:51:38.698Z,29.90
2017-07-21T11:54:08.065Z,29.90
2017-07-21T11:56:37.318Z,29.90
2017-07-21T11:59:06.559Z,30.00
2017-07-21T12:01:36.318Z,29.70
2017-07-21T12:04:05.678Z,29.80
2017-07-21T12:06:35.140Z,29.80
2017-07-21T12:09:04.637Z,30.10
2017-07-21T12:11:33.891Z,30.40
2017-07-21T12:14:03.911Z,30.80
2017-07-21T12:16:33.174Z,30.90
2017-07-21T12:19:02.426Z,31.20
2017-07-21T12:21:31.778Z,31.60
2017-07-21T12:24:01.015Z,31.70
2017-07-21T12:26:30.531Z,31.60
2017-07-21T12:28:59.763Z,31.90
2017-07-21T12:31:29.034Z,32.10
2017-07-21T12:33:58.387Z,32.30
2017-07-21T12:36:28.133Z,32.40
2017-07-21T12:38:58.250Z,32.50
2017-07-21T12:41:27.666Z,32.60
2017-07-21T12:43:57.079Z,32.90
2017-07-21T12:46:27.108Z,32.80
2017-07-21T12:48:56.395Z,32.80
2017-07-21T12:51:26.023Z,33.50
2017-07-21T12:53:55.266Z,34.00
2017-07-21T12:56:24.810Z,34.00
2017-07-21T12:58:54.122Z,33.90
2017-07-21T13:01:23.442Z,34.20
2017-07-21T13:03:52.722Z,33.90
2017-07-21T13:06:21.963Z,34.00
2017-07-21T13:08:51.296Z,34.10
2017-07-21T13:11:20.661Z,34.40
2017-07-21T13:13:49.927Z,35.20
2017-07-21T13:16:19.180Z,35.20
2017-07-21T13:18:48.427Z,35.20
2017-07-21T13:21:17.686Z,35.80
2017-07-21T13:23:47.003Z,36.20
2017-07-21T13:26:16.659Z,36.30
2017-07-21T13:28:45.921Z,36.60
2017-07-21T13:31:15.191Z,36.80
2017-07-21T13:33:44.472Z,37.00
2017-07-21T13:36:13.706Z,36.00
2017-07-21T13:38:43.666Z,35.90
2017-07-21T13:41:13.110Z,35.90
2017-07-21T13:43:42.342Z,35.90
2017-07-21T13:46:11.598Z,36.50
2017-07-21T13:48:41.446Z,37.20
2017-07-21T13:51:10.668Z,37.90
2017-07-21T13:53:39.911Z,38.50
2017-07-21T13:56:09.486Z,38.90
2017-07-21T13:58:38.861Z,39.00
2017-07-21T14:01:08.927Z,39.40
2017-07-21T14:03:38.159Z,39.40
2017-07-21T14:06:07.746Z,39.60
2017-07-21T14:08:37.064Z,40.00
2017-07-21T14:11:06.290Z,39.50
2017-07-21T14:13:36.541Z,39.30
2017-07-21T14:16:05.756Z,39.00
2017-07-21T14:18:35.627Z,39.80
2017-07-21T14:21:04.884Z,40.10
2017-07-21T14:23:34.307Z,40.20
2017-07-21T14:26:04.002Z,40.30
2017-07-21T14:28:33.258Z,40.70
2017-07-21T14:31:02.491Z,40.20
2017-07-21T14:33:31.698Z,40.40
2017-07-21T14:36:00.948Z,40.20
2017-07-21T14:38:31.667Z,38.90
2017-07-21T14:41:01.071Z,38.10
2017-07-21T14:43:30.319Z,37.20
2017-07-21T14:45:59.543Z,36.20
2017-07-21T14:48:28.823Z,35.60
2017-07-21T14:50:58.143Z,34.80
2017-07-21T14:53:27.371Z,34.40
2017-07-21T14:55:56.599Z,33.80
2017-07-21T14:58:25.811Z,33.80
2017-07-21T15:00:55.406Z,34.00
2017-07-21T15:03:24.678Z,34.00
2017-07-21T15:05:53.926Z,33.90
2017-07-21T15:08:23.159Z,33.70
2017-07-21T15:10:52.402Z,33.70
2017-07-21T15:13:23.198Z,33.70
2017-07-21T15:15:52.451Z,33.50
2017-07-21T15:18:21.982Z,33.30
2017-07-21T15:20:51.229Z,32.90
2017-07-21T15:23:20.490Z,32.60
2017-07-21T15:25:50.291Z,32.50
2017-07-21T15:28:19.538Z,32.50
2017-07-21T15:30:48.792Z,32.60
2017-07-21T15:33:18.074Z,32.70
2017-07-21T15:35:47.330Z,32.80
2017-07-21T15:38:16.594Z,32.70
2017-07-21T15:40:45.892Z,32.40
2017-07-21T15:43:15.142Z,32.20
2017-07-21T15:45:44.357Z,32.20
2017-07-21T15:48:13.563Z,32.30
2017-07-21T15:50:42.820Z,32.20
2017-07-21T15:53:12.067Z,32.20
2017-07-21T15:55:41.339Z,32.30
2017-07-21T15:58:10.550Z,32.20
2017-07-21T16:00:40.721Z,32.20
2017-07-21T16:03:09.966Z,32.00
2017-07-21T16:05:39.202Z,31.80
2017-07-21T16:08:08.445Z,31.60
2017-07-21T16:10:37.750Z,31.50
2017-07-21T16:13:07.534Z,31.40
2017-07-21T16:15:36.778Z,31.30
2017-07-21T16:18:06.502Z,31.30
2017-07-21T16:20:36.815Z,31.40
2017-07-21T16:23:06.051Z,31.30
2017-07-21T16:25:36.598Z,31.30
2017-07-21T16:28:06.113Z,31.30
2017-07-21T16:30:35.355Z,31.30
2017-07-21T16:33:04.628Z,31.20
2017-07-21T16:35:33.884Z,31.10
2017-07-21T16:38:04.342Z,31.00
2017-07-21T16:40:33.582Z,31.00
2017-07-21T16:43:03.638Z,31.10
2017-07-21T16:45:32.889Z,31.10
2017-07-21T16:48:02.430Z,31.00
2017-07-21T16:50:32.621Z,30.90
2017-07-21T16:53:01.882Z,30.90
2017-07-21T16:55:31.107Z,30.80
2017-07-21T16:58:00.323Z,30.70
2017-07-21T17:00:30.434Z,30.50
2017-07-21T17:02:59.754Z,30.50
2017-07-21T17:05:29.043Z,30.50
2017-07-21T17:08:00.507Z,30.50
2017-07-21T17:10:29.728Z,30.40
2017-07-21T17:12:59.173Z,30.30
2017-07-21T17:15:28.469Z,30.20
2017-07-21T17:17:57.773Z,30.10
2017-07-21T17:20:27.050Z,30.00
2017-07-21T17:22:56.437Z,29.90
2017-07-21T17:25:25.713Z,29.70
2017-07-21T17:27:56.112Z,29.60
2017-07-21T17:30:25.338Z,29.50
2017-07-21T17:32:54.586Z,29.30
2017-07-21T17:35:23.808Z,29.30
2017-07-21T17:37:53.023Z,29.20
2017-07-21T17:40:23.026Z,29.00
2017-07-21T17:42:52.302Z,28.90
2017-07-21T17:45:21.560Z,28.90
2017-07-21T17:47:50.806Z,28.70
2017-07-21T17:50:20.038Z,28.70
2017-07-21T17:52:50.038Z,28.60
2017-07-21T17:55:19.429Z,28.60
2017-07-21T17:57:49.315Z,28.60
2017-07-21T18:00:18.592Z,28.50
2017-07-21T18:02:47.820Z,28.50
2017-07-21T18:05:17.065Z,28.60
2017-07-21T18:07:47.074Z,28.40
2017-07-21T18:10:16.694Z,28.50
2017-07-21T18:12:45.940Z,28.40
2017-07-21T18:15:15.217Z,28.20
2017-07-21T18:17:44.460Z,28.20
2017-07-21T18:20:13.930Z,28.20
2017-07-21T18:22:43.256Z,28.20
2017-07-21T18:25:12.830Z,28.10
2017-07-21T18:27:42.100Z,28.00
2017-07-21T18:30:11.378Z,28.00
2017-07-21T18:32:40.642Z,27.90
2017-07-21T18:35:10.009Z,27.90
2017-07-21T18:37:40.074Z,27.90
2017-07-21T18:40:09.311Z,27.80
2017-07-21T18:42:39.304Z,27.70
2017-07-21T18:45:08.634Z,27.70
2017-07-21T18:47:37.866Z,27.70
2017-07-21T18:50:07.246Z,27.60
2017-07-21T18:52:36.618Z,27.60
2017-07-21T18:55:06.184Z,27.50
2017-07-21T18:57:35.882Z,27.40
2017-07-21T19:00:05.519Z,27.30
2017-07-21T19:02:35.127Z,27.30
2017-07-21T19:05:05.527Z,27.20
2017-07-21T19:07:35.138Z,27.20
2017-07-21T19:10:04.658Z,27.10
2017-07-21T19:12:34.218Z,27.10
2017-07-21T19:15:03.526Z,27.00
2017-07-21T19:17:32.831Z,27.00
2017-07-21T19:20:02.491Z,26.90
2017-07-21T19:22:31.730Z,26.80
2017-07-21T19:25:01.262Z,26.70
2017-07-21T19:27:30.529Z,26.60
2017-07-21T19:30:00.959Z,26.40
2017-07-21T19:32:30.246Z,26.20
2017-07-21T19:34:59.718Z,26.00
2017-07-21T19:37:29.190Z,25.90
2017-07-21T19:39:58.466Z,25.80
2017-07-21T19:42:28.809Z,25.80
2017-07-21T19:44:58.118Z,25.80
2017-07-21T19:47:27.859Z,25.90
2017-07-21T19:49:57.098Z,25.90
2017-07-21T19:52:26.722Z,25.90
2017-07-21T19:54:55.987Z,25.80
2017-07-21T19:57:26.102Z,25.70
2017-07-21T19:59:55.327Z,25.60
2017-07-21T20:02:24.623Z,25.50
2017-07-21T20:04:53.937Z,25.50
2017-07-21T20:07:23.309Z,25.30
2017-07-21T20:09:52.879Z,25.20
2017-07-21T20:12:22.152Z,25.20
2017-07-21T20:14:51.525Z,25.10
2017-07-21T20:17:21.118Z,25.10
2017-07-21T20:19:51.117Z,25.00
2017-07-21T20:22:20.404Z,25.00
2017-07-21T20:24:50.315Z,25.00
2017-07-21T20:27:19.583Z,25.00
2017-07-21T20:29:48.881Z,25.00
2017-07-21T20:32:18.144Z,25.00
2017-07-21T20:34:47.379Z,25.00
2017-07-21T20:37:16.974Z,24.90
2017-07-21T20:39:46.270Z,25.00
2017-07-21T20:42:15.506Z,24.90
2017-07-21T20:44:45.026Z,24.90
2017-07-21T20:47:14.342Z,24.80
2017-07-21T20:49:43.616Z,24.70
2017-07-21T20:52:13.595Z,24.70
2017-07-21T20:54:42.923Z,24.70
2017-07-21T20:57:12.190Z,24.60
2017-07-21T20:59:41.435Z,24.60
2017-07-21T21:02:10.703Z,24.50
2017-07-21T21:04:39.956Z,24.50
2017-07-21T21:07:09.195Z,24.50
2017-07-21T21:09:38.449Z,24.60
2017-07-21T21:12:07.687Z,24.60
2017-07-21T21:14:36.906Z,24.50
2017-07-21T21:17:06.557Z,24.50
2017-07-21T21:19:35.830Z,24.50
2017-07-21T21:22:05.115Z,24.60
2017-07-21T21:24:34.427Z,24.60
2017-07-21T21:27:03.647Z,24.50
2017-07-21T21:29:32.966Z,24.50
2017-07-21T21:32:02.191Z,24.50
2017-07-21T21:34:31.450Z,24.40
2017-07-21T21:37:00.723Z,24.30
2017-07-21T21:39:29.971Z,24.30
2017-07-21T21:41:59.219Z,24.40
2017-07-21T21:44:28.448Z,24.40
2017-07-21T21:46:58.515Z,24.40
2017-07-21T21:49:28.280Z,24.40
2017-07-21T21:51:58.531Z,24.30
2017-07-21T21:54:27.755Z,24.30
2017-07-21T21:56:56.977Z,24.30
2017-07-21T21:59:26.198Z,24.30
2017-07-21T22:01:55.480Z,24.30
2017-07-21T22:04:24.727Z,24.20
2017-07-21T22:06:53.963Z,24.30
2017-07-21T22:09:23.238Z,24.20
2017-07-21T22:11:52.470Z,24.20
2017-07-21T22:14:21.725Z,24.10
2017-07-21T22:16:50.945Z,24.00
2017-07-21T22:19:20.392Z,24.00
2017-07-21T22:21:49.706Z,23.90
2017-07-21T22:24:18.922Z,23.70
2017-07-21T22:26:48.172Z,23.50
2017-07-21T22:29:17.428Z,23.50
2017-07-21T22:31:47.250Z,23.30
2017-07-21T22:34:16.522Z,23.20
2017-07-21T22:36:45.744Z,23.10
2017-07-21T22:39:15.016Z,23.00
2017-07-21T22:41:44.237Z,23.10
2017-07-21T22:44:13.487Z,23.10
2017-07-21T22:46:42.776Z,23.10
2017-07-21T22:49:12.800Z,23.10
2017-07-21T22:51:42.024Z,23.10
2017-07-21T22:54:12.031Z,23.00
2017-07-21T22:56:42.069Z,22.90
2017-07-21T22:59:12.074Z,22.80
2017-07-21T23:01:42.178Z,22.70
2017-07-21T23:04:11.423Z,22.70
2017-07-21T23:06:41.156Z,22.80
2017-07-21T23:09:10.415Z,22.80
2017-07-21T23:11:39.702Z,22.90
2017-07-21T23:14:08.942Z,22.80
2017-07-21T23:16:38.204Z,22.80
2017-07-21T23:19:07.447Z,22.70
2017-07-21T23:21:36.713Z,22.70
2017-07-21T23:24:05.984Z,22.70
2017-07-21T23:26:35.271Z,22.70
2017-07-21T23:29:04.622Z,22.70
2017-07-21T23:31:33.858Z,22.60
2017-07-21T23:34:03.103Z,22.60
2017-07-21T23:36:33.106Z,22.40
2017-07-21T23:39:02.910Z,22.40
2017-07-21T23:41:32.151Z,22.50
2017-07-21T23:44:01.414Z,22.50
2017-07-21T23:46:30.667Z,22.50
2017-07-21T23:48:59.902Z,22.50
2017-07-21T23:51:30.067Z,22.40
2017-07-21T23:53:59.281Z,22.30
2017-07-21T23:56:29.356Z,22.30
2017-07-21T23:58:59.367Z,22.10
